?ar Airport


Codes: EPZR/
Name: ?ar Airport
City: Mi?dzybrodzie ?ywieckie
Country: Poland
Elevation: 1260 ft.

Photos at ?ar Airport


   Photos courtesy of SpottingLog. You can add your own sightings and photos by signing up for a free trial today.



No photos found.

Weather at ?ar Airport


Time (UTC)DescriptionTempratureWindCloud coverageVisibilityPressureHumidity
18-Apr-2024 00:00Light Snow3°C2 mph, NW95%5054m1009hPa98%
18-Apr-2024 03:00Light Rain1°C2 mph, NW80%10000m1010hPa97%
18-Apr-2024 06:00Scattered Clouds3°C4 mph, N49%10000m1012hPa82%
18-Apr-2024 09:00Broken Clouds6°C7 mph, N77%10000m1012hPa65%
18-Apr-2024 12:00Overcast Clouds7°C7 mph, NW89%9721m1012hPa63%
18-Apr-2024 15:00Light Rain7°C7 mph, NW99%10000m1012hPa58%
18-Apr-2024 18:00Light Snow4°C4 mph, NW97%10000m1014hPa78%
18-Apr-2024 21:00Light Snow2°C4 mph, W96%10000m1015hPa86%
19-Apr-2024 00:00Light Snow0°C4 mph, W83%10000m1016hPa90%
19-Apr-2024 03:00Scattered Clouds-0°C7 mph, SW47%10000m1016hPa91%
19-Apr-2024 06:00Scattered Clouds4°C7 mph, SW33%10000m1015hPa73%
19-Apr-2024 09:00Light Rain8°C9 mph, W49%10000m1013hPa55%
19-Apr-2024 12:00Light Rain10°C11 mph, W75%10000m1010hPa40%
19-Apr-2024 15:00Light Rain8°C13 mph, SW100%10000m1010hPa61%
19-Apr-2024 18:00Overcast Clouds5°C11 mph, S100%10000m1009hPa81%
19-Apr-2024 21:00Light Rain4°C11 mph, SW100%645m1009hPa96%
20-Apr-2024 00:00Light Rain4°C2 mph, S100%78m1008hPa98%
20-Apr-2024 03:00Light Snow3°C4 mph, SW100%445m1008hPa98%
20-Apr-2024 06:00Light Snow4°C4 mph, SW100%114m1010hPa98%
20-Apr-2024 09:00Light Rain4°C7 mph, SW100%700m1012hPa93%
20-Apr-2024 12:00Light Rain5°C4 mph, W100%3656m1013hPa88%
20-Apr-2024 15:00Light Rain7°C4 mph, NW100%10000m1014hPa77%
20-Apr-2024 18:00Light Rain4°C4 mph, NW100%10000m1016hPa88%
20-Apr-2024 21:00Snow4°C4 mph, NW96%546m1018hPa99%
21-Apr-2024 00:00Light Snow3°C4 mph, NW98%391m1019hPa99%
21-Apr-2024 03:00Light Snow2°C4 mph, NW100%23m1020hPa99%
21-Apr-2024 06:00Light Snow2°C4 mph, NW100%256m1021hPa99%
21-Apr-2024 09:00Light Snow2°C4 mph, N100%111m1022hPa96%
21-Apr-2024 12:00Light Snow3°C7 mph, N100%6071m1021hPa90%
21-Apr-2024 15:00Light Snow3°C4 mph, N100%10000m1021hPa85%
21-Apr-2024 18:00Light Snow2°C2 mph, N100%254m1021hPa97%
21-Apr-2024 21:00Light Snow2°C4 mph, N100%301m1021hPa99%
22-Apr-2024 00:00Light Snow2°C2 mph, NW100%443m1020hPa99%
22-Apr-2024 03:00Light Snow2°C2 mph, NW100%306m1019hPa100%
22-Apr-2024 06:00Snow2°C2 mph, NW100%280m1019hPa100%
22-Apr-2024 09:00Light Snow3°C2 mph, W100%320m1020hPa100%
22-Apr-2024 12:00Light Rain4°C2 mph, W100%499m1021hPa99%
22-Apr-2024 15:00Overcast Clouds4°C4 mph, SW100%387m1020hPa99%
22-Apr-2024 18:00Overcast Clouds4°C2 mph, SW100%10000m1021hPa99%
22-Apr-2024 21:00Overcast Clouds4°C2 mph, W100%10000m1021hPa98%